<?xml version="1.0" encoding="UTF-8" standalone="no" ?>
<gpx xmlns="http://www.topografix.com/GPX/1/1" xmlns:xsi="http://www.w3.org/2001/XMLSchema-instance" xsi:schemaLocation="http://www.topografix.com/GPX/1/1 http://www.topografix.com/GPX/1/1/gpx.xsd" version="1.1" creator="VisuGPX - https://www.visugpx.com">
  <metadata>
    <name>Nocherie 21</name>
  </metadata>
  <trk>
    <name><![CDATA[Nocherie 21_1]]></name>
    <trkseg>
      <trkpt lat="48.61506" lon="-0.6012">
        <ele>168.4</ele>
        <time>1989-12-31T00:00:00Z</time>
      </trkpt>
      <trkpt lat="48.61564" lon="-0.60151">
        <ele>163.6</ele>
        <time>1989-12-31T00:00:12Z</time>
      </trkpt>
      <trkpt lat="48.61611" lon="-0.60227">
        <ele>157.4</ele>
        <time>1989-12-31T00:00:27Z</time>
      </trkpt>
      <trkpt lat="48.61671" lon="-0.60264">
        <ele>157.8</ele>
        <time>1989-12-31T00:00:40Z</time>
      </trkpt>
      <trkpt lat="48.61655" lon="-0.60114">
        <ele>151</ele>
        <time>1989-12-31T00:01:01Z</time>
      </trkpt>
      <trkpt lat="48.61661" lon="-0.60054">
        <ele>147.2</ele>
        <time>1989-12-31T00:01:09Z</time>
      </trkpt>
      <trkpt lat="48.61728" lon="-0.59988">
        <ele>142.8</ele>
        <time>1989-12-31T00:01:26Z</time>
      </trkpt>
      <trkpt lat="48.61751" lon="-0.59839">
        <ele>143.8</ele>
        <time>1989-12-31T00:01:47Z</time>
      </trkpt>
      <trkpt lat="48.61787" lon="-0.59756">
        <ele>150.6</ele>
        <time>1989-12-31T00:02:00Z</time>
      </trkpt>
      <trkpt lat="48.6183" lon="-0.59662">
        <ele>153</ele>
        <time>1989-12-31T00:02:16Z</time>
      </trkpt>
      <trkpt lat="48.61812" lon="-0.59633">
        <ele>154.4</ele>
        <time>1989-12-31T00:02:22Z</time>
      </trkpt>
      <trkpt lat="48.6178" lon="-0.59664">
        <ele>160.6</ele>
        <time>1989-12-31T00:02:29Z</time>
      </trkpt>
      <trkpt lat="48.61748" lon="-0.59679">
        <ele>164.6</ele>
        <time>1989-12-31T00:02:37Z</time>
      </trkpt>
      <trkpt lat="48.61678" lon="-0.59701">
        <ele>162.2</ele>
        <time>1989-12-31T00:02:51Z</time>
      </trkpt>
      <trkpt lat="48.61661" lon="-0.59636">
        <ele>168.8</ele>
        <time>1989-12-31T00:03:01Z</time>
      </trkpt>
      <trkpt lat="48.61626" lon="-0.59419">
        <ele>179.4</ele>
        <time>1989-12-31T00:03:31Z</time>
      </trkpt>
      <trkpt lat="48.61605" lon="-0.5935">
        <ele>185.2</ele>
        <time>1989-12-31T00:03:42Z</time>
      </trkpt>
      <trkpt lat="48.61583" lon="-0.59325">
        <ele>187.6</ele>
        <time>1989-12-31T00:03:48Z</time>
      </trkpt>
      <trkpt lat="48.61555" lon="-0.59336">
        <ele>189</ele>
        <time>1989-12-31T00:03:54Z</time>
      </trkpt>
      <trkpt lat="48.61468" lon="-0.59372">
        <ele>189.6</ele>
        <time>1989-12-31T00:04:12Z</time>
      </trkpt>
      <trkpt lat="48.61364" lon="-0.59365">
        <ele>185.6</ele>
        <time>1989-12-31T00:04:34Z</time>
      </trkpt>
      <trkpt lat="48.6133" lon="-0.59329">
        <ele>185.6</ele>
        <time>1989-12-31T00:04:43Z</time>
      </trkpt>
      <trkpt lat="48.6129" lon="-0.59156">
        <ele>192</ele>
        <time>1989-12-31T00:05:08Z</time>
      </trkpt>
      <trkpt lat="48.61289" lon="-0.591">
        <ele>194.4</ele>
        <time>1989-12-31T00:05:15Z</time>
      </trkpt>
      <trkpt lat="48.61267" lon="-0.58928">
        <ele>199.6</ele>
        <time>1989-12-31T00:05:40Z</time>
      </trkpt>
      <trkpt lat="48.61255" lon="-0.58842">
        <ele>199.2</ele>
        <time>1989-12-31T00:05:52Z</time>
      </trkpt>
      <trkpt lat="48.6126" lon="-0.58794">
        <ele>196.2</ele>
        <time>1989-12-31T00:05:58Z</time>
      </trkpt>
      <trkpt lat="48.61438" lon="-0.58745">
        <ele>185.2</ele>
        <time>1989-12-31T00:06:36Z</time>
      </trkpt>
      <trkpt lat="48.61534" lon="-0.58665">
        <ele>179</ele>
        <time>1989-12-31T00:06:59Z</time>
      </trkpt>
      <trkpt lat="48.61566" lon="-0.58623">
        <ele>175.6</ele>
        <time>1989-12-31T00:07:07Z</time>
      </trkpt>
      <trkpt lat="48.61621" lon="-0.58526">
        <ele>171.2</ele>
        <time>1989-12-31T00:07:25Z</time>
      </trkpt>
      <trkpt lat="48.61697" lon="-0.58263">
        <ele>182.4</ele>
        <time>1989-12-31T00:08:04Z</time>
      </trkpt>
      <trkpt lat="48.61781" lon="-0.58043">
        <ele>189.6</ele>
        <time>1989-12-31T00:08:39Z</time>
      </trkpt>
      <trkpt lat="48.61787" lon="-0.58042">
        <ele>189.6</ele>
        <time>1989-12-31T00:08:40Z</time>
      </trkpt>
      <trkpt lat="48.61643" lon="-0.57856">
        <ele>189.6</ele>
        <time>1989-12-31T00:09:20Z</time>
      </trkpt>
      <trkpt lat="48.61629" lon="-0.57797">
        <ele>190.4</ele>
        <time>1989-12-31T00:09:28Z</time>
      </trkpt>
      <trkpt lat="48.61512" lon="-0.57721">
        <ele>203.4</ele>
        <time>1989-12-31T00:09:55Z</time>
      </trkpt>
      <trkpt lat="48.615" lon="-0.57543">
        <ele>209.8</ele>
        <time>1989-12-31T00:10:19Z</time>
      </trkpt>
      <trkpt lat="48.61486" lon="-0.57431">
        <ele>207.4</ele>
        <time>1989-12-31T00:10:35Z</time>
      </trkpt>
      <trkpt lat="48.61362" lon="-0.5726">
        <ele>217.4</ele>
        <time>1989-12-31T00:11:10Z</time>
      </trkpt>
      <trkpt lat="48.6139" lon="-0.57155">
        <ele>217.4</ele>
        <time>1989-12-31T00:11:25Z</time>
      </trkpt>
      <trkpt lat="48.61408" lon="-0.57045">
        <ele>211.2</ele>
        <time>1989-12-31T00:11:41Z</time>
      </trkpt>
      <trkpt lat="48.61361" lon="-0.57015">
        <ele>214</ele>
        <time>1989-12-31T00:11:52Z</time>
      </trkpt>
      <trkpt lat="48.61321" lon="-0.5702">
        <ele>216.4</ele>
        <time>1989-12-31T00:12:00Z</time>
      </trkpt>
      <trkpt lat="48.61296" lon="-0.57045">
        <ele>218.4</ele>
        <time>1989-12-31T00:12:06Z</time>
      </trkpt>
      <trkpt lat="48.61201" lon="-0.57042">
        <ele>226</ele>
        <time>1989-12-31T00:12:26Z</time>
      </trkpt>
      <trkpt lat="48.61118" lon="-0.57033">
        <ele>229.4</ele>
        <time>1989-12-31T00:12:43Z</time>
      </trkpt>
      <trkpt lat="48.61091" lon="-0.57053">
        <ele>229.4</ele>
        <time>1989-12-31T00:12:49Z</time>
      </trkpt>
      <trkpt lat="48.6108" lon="-0.57121">
        <ele>229.8</ele>
        <time>1989-12-31T00:12:59Z</time>
      </trkpt>
      <trkpt lat="48.61051" lon="-0.57434">
        <ele>221.8</ele>
        <time>1989-12-31T00:13:42Z</time>
      </trkpt>
      <trkpt lat="48.61067" lon="-0.57623">
        <ele>220.8</ele>
        <time>1989-12-31T00:14:08Z</time>
      </trkpt>
      <trkpt lat="48.6109" lon="-0.57715">
        <ele>219.8</ele>
        <time>1989-12-31T00:14:22Z</time>
      </trkpt>
      <trkpt lat="48.61127" lon="-0.57842">
        <ele>216.4</ele>
        <time>1989-12-31T00:14:41Z</time>
      </trkpt>
      <trkpt lat="48.61114" lon="-0.5788">
        <ele>216</ele>
        <time>1989-12-31T00:14:47Z</time>
      </trkpt>
      <trkpt lat="48.61028" lon="-0.57882">
        <ele>213.6</ele>
        <time>1989-12-31T00:15:05Z</time>
      </trkpt>
      <trkpt lat="48.6089" lon="-0.57895">
        <ele>203</ele>
        <time>1989-12-31T00:15:34Z</time>
      </trkpt>
      <trkpt lat="48.60831" lon="-0.57963">
        <ele>193.8</ele>
        <time>1989-12-31T00:15:49Z</time>
      </trkpt>
      <trkpt lat="48.60817" lon="-0.57957">
        <ele>191.4</ele>
        <time>1989-12-31T00:15:52Z</time>
      </trkpt>
      <trkpt lat="48.6081" lon="-0.58031">
        <ele>191</ele>
        <time>1989-12-31T00:16:02Z</time>
      </trkpt>
      <trkpt lat="48.60825" lon="-0.58044">
        <ele>192</ele>
        <time>1989-12-31T00:16:06Z</time>
      </trkpt>
      <trkpt lat="48.60861" lon="-0.58137">
        <ele>189.6</ele>
        <time>1989-12-31T00:16:20Z</time>
      </trkpt>
      <trkpt lat="48.60831" lon="-0.5805">
        <ele>191.4</ele>
        <time>1989-12-31T00:16:34Z</time>
      </trkpt>
      <trkpt lat="48.60807" lon="-0.58021">
        <ele>191</ele>
        <time>1989-12-31T00:16:40Z</time>
      </trkpt>
      <trkpt lat="48.60807" lon="-0.57964">
        <ele>190.4</ele>
        <time>1989-12-31T00:16:48Z</time>
      </trkpt>
      <trkpt lat="48.60711" lon="-0.57914">
        <ele>176</ele>
        <time>1989-12-31T00:17:09Z</time>
      </trkpt>
      <trkpt lat="48.60723" lon="-0.57976">
        <ele>173.6</ele>
        <time>1989-12-31T00:17:18Z</time>
      </trkpt>
      <trkpt lat="48.60771" lon="-0.58088">
        <ele>171.8</ele>
        <time>1989-12-31T00:17:36Z</time>
      </trkpt>
      <trkpt lat="48.60803" lon="-0.58195">
        <ele>168.4</ele>
        <time>1989-12-31T00:17:52Z</time>
      </trkpt>
      <trkpt lat="48.60737" lon="-0.5904">
        <ele>155.4</ele>
        <time>1989-12-31T00:19:49Z</time>
      </trkpt>
      <trkpt lat="48.60783" lon="-0.5926">
        <ele>164.6</ele>
        <time>1989-12-31T00:20:21Z</time>
      </trkpt>
      <trkpt lat="48.60783" lon="-0.59628">
        <ele>168.8</ele>
        <time>1989-12-31T00:21:11Z</time>
      </trkpt>
      <trkpt lat="48.60783" lon="-0.59767">
        <ele>168.8</ele>
        <time>1989-12-31T00:21:31Z</time>
      </trkpt>
      <trkpt lat="48.60741" lon="-0.59964">
        <ele>160.6</ele>
        <time>1989-12-31T00:21:59Z</time>
      </trkpt>
      <trkpt lat="48.60743" lon="-0.60041">
        <ele>161.2</ele>
        <time>1989-12-31T00:22:10Z</time>
      </trkpt>
      <trkpt lat="48.60876" lon="-0.59932">
        <ele>178</ele>
        <time>1989-12-31T00:22:41Z</time>
      </trkpt>
      <trkpt lat="48.60931" lon="-0.60004">
        <ele>174.2</ele>
        <time>1989-12-31T00:22:56Z</time>
      </trkpt>
      <trkpt lat="48.60971" lon="-0.6004">
        <ele>166</ele>
        <time>1989-12-31T00:23:06Z</time>
      </trkpt>
      <trkpt lat="48.61011" lon="-0.59989">
        <ele>153.4</ele>
        <time>1989-12-31T00:23:17Z</time>
      </trkpt>
      <trkpt lat="48.61074" lon="-0.59975">
        <ele>149.6</ele>
        <time>1989-12-31T00:23:30Z</time>
      </trkpt>
      <trkpt lat="48.61088" lon="-0.60037">
        <ele>141</ele>
        <time>1989-12-31T00:23:39Z</time>
      </trkpt>
      <trkpt lat="48.61053" lon="-0.60117">
        <ele>140.4</ele>
        <time>1989-12-31T00:23:52Z</time>
      </trkpt>
      <trkpt lat="48.61053" lon="-0.60162">
        <ele>143.4</ele>
        <time>1989-12-31T00:23:58Z</time>
      </trkpt>
      <trkpt lat="48.61059" lon="-0.60182">
        <ele>142.4</ele>
        <time>1989-12-31T00:24:01Z</time>
      </trkpt>
      <trkpt lat="48.60901" lon="-0.60619">
        <ele>142.8</ele>
        <time>1989-12-31T00:25:09Z</time>
      </trkpt>
      <trkpt lat="48.60748" lon="-0.61101">
        <ele>142.4</ele>
        <time>1989-12-31T00:26:23Z</time>
      </trkpt>
      <trkpt lat="48.6058" lon="-0.61727">
        <ele>142</ele>
        <time>1989-12-31T00:27:55Z</time>
      </trkpt>
      <trkpt lat="48.6053" lon="-0.61975">
        <ele>142</ele>
        <time>1989-12-31T00:28:31Z</time>
      </trkpt>
      <trkpt lat="48.60506" lon="-0.62561">
        <ele>141</ele>
        <time>1989-12-31T00:29:52Z</time>
      </trkpt>
      <trkpt lat="48.60526" lon="-0.62426">
        <ele>148.6</ele>
        <time>1989-12-31T00:30:11Z</time>
      </trkpt>
      <trkpt lat="48.60546" lon="-0.62376">
        <ele>150.6</ele>
        <time>1989-12-31T00:30:19Z</time>
      </trkpt>
      <trkpt lat="48.60576" lon="-0.62387">
        <ele>155.4</ele>
        <time>1989-12-31T00:30:25Z</time>
      </trkpt>
      <trkpt lat="48.60611" lon="-0.62543">
        <ele>163</ele>
        <time>1989-12-31T00:30:48Z</time>
      </trkpt>
      <trkpt lat="48.60666" lon="-0.62645">
        <ele>167</ele>
        <time>1989-12-31T00:31:06Z</time>
      </trkpt>
      <trkpt lat="48.60775" lon="-0.6273">
        <ele>174.2</ele>
        <time>1989-12-31T00:31:31Z</time>
      </trkpt>
      <trkpt lat="48.60868" lon="-0.62767">
        <ele>178</ele>
        <time>1989-12-31T00:31:51Z</time>
      </trkpt>
      <trkpt lat="48.61104" lon="-0.62692">
        <ele>196.2</ele>
        <time>1989-12-31T00:32:41Z</time>
      </trkpt>
      <trkpt lat="48.61217" lon="-0.6268">
        <ele>206.8</ele>
        <time>1989-12-31T00:33:05Z</time>
      </trkpt>
      <trkpt lat="48.61347" lon="-0.62664">
        <ele>210.6</ele>
        <time>1989-12-31T00:33:32Z</time>
      </trkpt>
      <trkpt lat="48.61696" lon="-0.62724">
        <ele>215</ele>
        <time>1989-12-31T00:34:45Z</time>
      </trkpt>
      <trkpt lat="48.61833" lon="-0.62753">
        <ele>214.6</ele>
        <time>1989-12-31T00:35:13Z</time>
      </trkpt>
      <trkpt lat="48.62089" lon="-0.62879">
        <ele>219.8</ele>
        <time>1989-12-31T00:36:09Z</time>
      </trkpt>
      <trkpt lat="48.62268" lon="-0.62966">
        <ele>216</ele>
        <time>1989-12-31T00:36:48Z</time>
      </trkpt>
      <trkpt lat="48.62485" lon="-0.63104">
        <ele>222.6</ele>
        <time>1989-12-31T00:37:37Z</time>
      </trkpt>
      <trkpt lat="48.62537" lon="-0.63157">
        <ele>227.4</ele>
        <time>1989-12-31T00:37:50Z</time>
      </trkpt>
      <trkpt lat="48.62587" lon="-0.63194">
        <ele>229.4</ele>
        <time>1989-12-31T00:38:02Z</time>
      </trkpt>
      <trkpt lat="48.62956" lon="-0.63381">
        <ele>246.8</ele>
        <time>1989-12-31T00:39:22Z</time>
      </trkpt>
      <trkpt lat="48.63022" lon="-0.63417">
        <ele>246.8</ele>
        <time>1989-12-31T00:39:37Z</time>
      </trkpt>
      <trkpt lat="48.63219" lon="-0.63477">
        <ele>239.6</ele>
        <time>1989-12-31T00:40:19Z</time>
      </trkpt>
      <trkpt lat="48.63408" lon="-0.63463">
        <ele>238</ele>
        <time>1989-12-31T00:40:58Z</time>
      </trkpt>
      <trkpt lat="48.63775" lon="-0.63627">
        <ele>235.6</ele>
        <time>1989-12-31T00:42:17Z</time>
      </trkpt>
      <trkpt lat="48.63829" lon="-0.63622">
        <ele>234.6</ele>
        <time>1989-12-31T00:42:29Z</time>
      </trkpt>
      <trkpt lat="48.63993" lon="-0.63544">
        <ele>235.6</ele>
        <time>1989-12-31T00:43:04Z</time>
      </trkpt>
      <trkpt lat="48.64058" lon="-0.63497">
        <ele>236.6</ele>
        <time>1989-12-31T00:43:19Z</time>
      </trkpt>
      <trkpt lat="48.6414" lon="-0.63393">
        <ele>239</ele>
        <time>1989-12-31T00:43:41Z</time>
      </trkpt>
      <trkpt lat="48.64183" lon="-0.63361">
        <ele>238</ele>
        <time>1989-12-31T00:43:51Z</time>
      </trkpt>
      <trkpt lat="48.64395" lon="-0.63256">
        <ele>241.4</ele>
        <time>1989-12-31T00:44:38Z</time>
      </trkpt>
      <trkpt lat="48.64402" lon="-0.63235">
        <ele>241.4</ele>
        <time>1989-12-31T00:44:41Z</time>
      </trkpt>
      <trkpt lat="48.64388" lon="-0.63161">
        <ele>238.6</ele>
        <time>1989-12-31T00:44:51Z</time>
      </trkpt>
      <trkpt lat="48.64253" lon="-0.63056">
        <ele>238.6</ele>
        <time>1989-12-31T00:45:23Z</time>
      </trkpt>
      <trkpt lat="48.64165" lon="-0.62993">
        <ele>236.6</ele>
        <time>1989-12-31T00:45:43Z</time>
      </trkpt>
      <trkpt lat="48.64076" lon="-0.62927">
        <ele>233.2</ele>
        <time>1989-12-31T00:46:04Z</time>
      </trkpt>
      <trkpt lat="48.64055" lon="-0.62907">
        <ele>229.8</ele>
        <time>1989-12-31T00:46:09Z</time>
      </trkpt>
      <trkpt lat="48.63954" lon="-0.62729">
        <ele>231.8</ele>
        <time>1989-12-31T00:46:41Z</time>
      </trkpt>
      <trkpt lat="48.63837" lon="-0.62654">
        <ele>227.4</ele>
        <time>1989-12-31T00:47:07Z</time>
      </trkpt>
      <trkpt lat="48.63784" lon="-0.62673">
        <ele>228</ele>
        <time>1989-12-31T00:47:19Z</time>
      </trkpt>
      <trkpt lat="48.63712" lon="-0.62572">
        <ele>225</ele>
        <time>1989-12-31T00:47:39Z</time>
      </trkpt>
      <trkpt lat="48.63678" lon="-0.62492">
        <ele>225.6</ele>
        <time>1989-12-31T00:47:52Z</time>
      </trkpt>
      <trkpt lat="48.63578" lon="-0.62321">
        <ele>217.8</ele>
        <time>1989-12-31T00:48:23Z</time>
      </trkpt>
      <trkpt lat="48.63425" lon="-0.62296">
        <ele>216.4</ele>
        <time>1989-12-31T00:48:55Z</time>
      </trkpt>
      <trkpt lat="48.6337" lon="-0.62237">
        <ele>217.8</ele>
        <time>1989-12-31T00:49:09Z</time>
      </trkpt>
      <trkpt lat="48.63391" lon="-0.61845">
        <ele>218.8</ele>
        <time>1989-12-31T00:50:03Z</time>
      </trkpt>
      <trkpt lat="48.63416" lon="-0.61825">
        <ele>220.2</ele>
        <time>1989-12-31T00:50:09Z</time>
      </trkpt>
      <trkpt lat="48.6348" lon="-0.61826">
        <ele>222.2</ele>
        <time>1989-12-31T00:50:22Z</time>
      </trkpt>
      <trkpt lat="48.6355" lon="-0.61858">
        <ele>226.6</ele>
        <time>1989-12-31T00:50:37Z</time>
      </trkpt>
      <trkpt lat="48.63555" lon="-0.61657">
        <ele>226</ele>
        <time>1989-12-31T00:51:05Z</time>
      </trkpt>
      <trkpt lat="48.63561" lon="-0.61586">
        <ele>225.6</ele>
        <time>1989-12-31T00:51:15Z</time>
      </trkpt>
      <trkpt lat="48.63597" lon="-0.61316">
        <ele>216</ele>
        <time>1989-12-31T00:51:53Z</time>
      </trkpt>
      <trkpt lat="48.63587" lon="-0.61074">
        <ele>212.2</ele>
        <time>1989-12-31T00:52:26Z</time>
      </trkpt>
      <trkpt lat="48.63603" lon="-0.60906">
        <ele>211.6</ele>
        <time>1989-12-31T00:52:49Z</time>
      </trkpt>
      <trkpt lat="48.63597" lon="-0.60784">
        <ele>205.4</ele>
        <time>1989-12-31T00:53:06Z</time>
      </trkpt>
      <trkpt lat="48.6361" lon="-0.60661">
        <ele>201.6</ele>
        <time>1989-12-31T00:53:23Z</time>
      </trkpt>
      <trkpt lat="48.63568" lon="-0.60479">
        <ele>195.2</ele>
        <time>1989-12-31T00:53:50Z</time>
      </trkpt>
      <trkpt lat="48.63581" lon="-0.60272">
        <ele>189</ele>
        <time>1989-12-31T00:54:18Z</time>
      </trkpt>
      <trkpt lat="48.63576" lon="-0.60234">
        <ele>187.2</ele>
        <time>1989-12-31T00:54:23Z</time>
      </trkpt>
      <trkpt lat="48.63547" lon="-0.60127">
        <ele>183.8</ele>
        <time>1989-12-31T00:54:39Z</time>
      </trkpt>
      <trkpt lat="48.63483" lon="-0.5998">
        <ele>180.4</ele>
        <time>1989-12-31T00:55:03Z</time>
      </trkpt>
      <trkpt lat="48.63452" lon="-0.59964">
        <ele>179.4</ele>
        <time>1989-12-31T00:55:10Z</time>
      </trkpt>
      <trkpt lat="48.63379" lon="-0.59995">
        <ele>172.6</ele>
        <time>1989-12-31T00:55:26Z</time>
      </trkpt>
      <trkpt lat="48.63312" lon="-0.60088">
        <ele>180</ele>
        <time>1989-12-31T00:55:45Z</time>
      </trkpt>
      <trkpt lat="48.63266" lon="-0.60129">
        <ele>182.4</ele>
        <time>1989-12-31T00:55:56Z</time>
      </trkpt>
      <trkpt lat="48.63239" lon="-0.60158">
        <ele>182.4</ele>
        <time>1989-12-31T00:56:03Z</time>
      </trkpt>
      <trkpt lat="48.63168" lon="-0.60249">
        <ele>184.8</ele>
        <time>1989-12-31T00:56:22Z</time>
      </trkpt>
      <trkpt lat="48.63057" lon="-0.60475">
        <ele>200</ele>
        <time>1989-12-31T00:57:01Z</time>
      </trkpt>
      <trkpt lat="48.63049" lon="-0.60488">
        <ele>204</ele>
        <time>1989-12-31T00:57:03Z</time>
      </trkpt>
      <trkpt lat="48.62991" lon="-0.60549">
        <ele>212.6</ele>
        <time>1989-12-31T00:57:18Z</time>
      </trkpt>
      <trkpt lat="48.62833" lon="-0.6076">
        <ele>225.6</ele>
        <time>1989-12-31T00:58:02Z</time>
      </trkpt>
      <trkpt lat="48.62781" lon="-0.60842">
        <ele>226</ele>
        <time>1989-12-31T00:58:17Z</time>
      </trkpt>
      <trkpt lat="48.62684" lon="-0.60912">
        <ele>228.4</ele>
        <time>1989-12-31T00:58:39Z</time>
      </trkpt>
      <trkpt lat="48.62603" lon="-0.60936">
        <ele>225</ele>
        <time>1989-12-31T00:58:57Z</time>
      </trkpt>
      <trkpt lat="48.62559" lon="-0.60949">
        <ele>218.4</ele>
        <time>1989-12-31T00:59:06Z</time>
      </trkpt>
      <trkpt lat="48.6247" lon="-0.60935">
        <ele>209.8</ele>
        <time>1989-12-31T00:59:24Z</time>
      </trkpt>
      <trkpt lat="48.62333" lon="-0.60996">
        <ele>216.4</ele>
        <time>1989-12-31T00:59:54Z</time>
      </trkpt>
      <trkpt lat="48.62238" lon="-0.61104">
        <ele>206.4</ele>
        <time>1989-12-31T01:00:19Z</time>
      </trkpt>
      <trkpt lat="48.62084" lon="-0.61195">
        <ele>189</ele>
        <time>1989-12-31T01:00:53Z</time>
      </trkpt>
      <trkpt lat="48.62041" lon="-0.61241">
        <ele>187.6</ele>
        <time>1989-12-31T01:01:04Z</time>
      </trkpt>
      <trkpt lat="48.61914" lon="-0.61389">
        <ele>169.4</ele>
        <time>1989-12-31T01:01:37Z</time>
      </trkpt>
      <trkpt lat="48.61844" lon="-0.6144">
        <ele>172.2</ele>
        <time>1989-12-31T01:01:54Z</time>
      </trkpt>
      <trkpt lat="48.61766" lon="-0.61445">
        <ele>181.4</ele>
        <time>1989-12-31T01:02:10Z</time>
      </trkpt>
      <trkpt lat="48.61747" lon="-0.61341">
        <ele>184.2</ele>
        <time>1989-12-31T01:02:24Z</time>
      </trkpt>
      <trkpt lat="48.61724" lon="-0.61291">
        <ele>182.4</ele>
        <time>1989-12-31T01:02:33Z</time>
      </trkpt>
      <trkpt lat="48.61634" lon="-0.61216">
        <ele>180.4</ele>
        <time>1989-12-31T01:02:54Z</time>
      </trkpt>
      <trkpt lat="48.61645" lon="-0.611">
        <ele>173.2</ele>
        <time>1989-12-31T01:03:10Z</time>
      </trkpt>
      <trkpt lat="48.61644" lon="-0.61054">
        <ele>168.4</ele>
        <time>1989-12-31T01:03:16Z</time>
      </trkpt>
      <trkpt lat="48.61603" lon="-0.60827">
        <ele>160.2</ele>
        <time>1989-12-31T01:03:49Z</time>
      </trkpt>
      <trkpt lat="48.61612" lon="-0.60804">
        <ele>159.8</ele>
        <time>1989-12-31T01:03:52Z</time>
      </trkpt>
      <trkpt lat="48.61663" lon="-0.60801">
        <ele>160.6</ele>
        <time>1989-12-31T01:04:03Z</time>
      </trkpt>
      <trkpt lat="48.6167" lon="-0.60783">
        <ele>162.6</ele>
        <time>1989-12-31T01:04:06Z</time>
      </trkpt>
      <trkpt lat="48.61641" lon="-0.60525">
        <ele>169.4</ele>
        <time>1989-12-31T01:04:42Z</time>
      </trkpt>
      <trkpt lat="48.61666" lon="-0.60274">
        <ele>160.6</ele>
        <time>1989-12-31T01:05:17Z</time>
      </trkpt>
      <trkpt lat="48.61608" lon="-0.60229">
        <ele>160.2</ele>
        <time>1989-12-31T01:05:30Z</time>
      </trkpt>
      <trkpt lat="48.61559" lon="-0.60149">
        <ele>165.4</ele>
        <time>1989-12-31T01:05:45Z</time>
      </trkpt>
      <trkpt lat="48.6148" lon="-0.60114">
        <ele>208.8</ele>
        <time>1989-12-31T01:06:02Z</time>
      </trkpt>
    </trkseg>
  </trk>
</gpx>